EAI1DC EGFF-EGAC
Flight info
| Callsign | EAI1DC |
|---|---|
| Flight time | 1h 7m |
| Altitude | 22000 |
| Route | BCN1B BCN P69 DIZIM N864 WAL M146 ERDUV Z198 MASOP M148 MAGEE DCT |
| Aircraft | AT76/M-SDFGIRY/S |
Departure
| Time | 2026-04-30 17:48 |
|---|---|
| Airport | Cardiff International Airport (EGFF) |
Arrival
| Time | 2026-04-30 18:55 |
|---|---|
| Airport | George Best Belfast City Airport (EGAC) |
| Time | Latitude | Longitude | Altitude | Speed | Heading |
|---|---|---|---|---|---|
| 2026-04-30 17:39 | 51.39875 | -3.34188 | 191 ft | 1 kts | 118° |
| 2026-04-30 17:41 | 51.39924 | -3.34238 | 219 ft | 0 kts | 207° |
| 2026-04-30 17:44 | 51.39891 | -3.34264 | 220 ft | 9 kts | 206° |
| 2026-04-30 17:44 | 51.39935 | -3.34618 | 219 ft | 20 kts | 296° |
| 2026-04-30 17:46 | 51.40060 | -3.35529 | 216 ft | 7 kts | 194° |
| 2026-04-30 17:47 | 51.40036 | -3.35516 | 218 ft | 0 kts | 130° |
| 2026-04-30 17:48 | 51.39107 | -3.32275 | 1293 ft | 108 kts | 116° |
| 2026-04-30 17:48 | 51.38100 | -3.28890 | 2440 ft | 136 kts | 121° |
| 2026-04-30 17:49 | 51.36159 | -3.22789 | 3795 ft | 159 kts | 120° |
| 2026-04-30 17:50 | 51.37411 | -3.16079 | 5129 ft | 190 kts | 54° |
| 2026-04-30 17:51 | 51.40391 | -3.12012 | 6231 ft | 202 kts | 6° |
| 2026-04-30 17:52 | 51.44614 | -3.13304 | 7213 ft | 209 kts | 343° |
| 2026-04-30 17:53 | 51.51656 | -3.16741 | 8878 ft | 215 kts | 345° |
| 2026-04-30 17:54 | 51.57506 | -3.19422 | 10096 ft | 221 kts | 344° |
| 2026-04-30 17:55 | 51.63546 | -3.22199 | 11265 ft | 229 kts | 344° |
| 2026-04-30 17:56 | 51.69743 | -3.25052 | 12334 ft | 234 kts | 345° |
| 2026-04-30 17:57 | 51.74533 | -3.26074 | 13041 ft | 235 kts | 14° |
| 2026-04-30 17:58 | 51.79364 | -3.24575 | 13803 ft | 239 kts | 14° |
| 2026-04-30 17:59 | 51.86005 | -3.22913 | 14650 ft | 244 kts | 13° |
| 2026-04-30 18:00 | 51.92744 | -3.21243 | 15486 ft | 246 kts | 13° |
| 2026-04-30 18:00 | 51.97843 | -3.20033 | 15949 ft | 249 kts | 12° |
| 2026-04-30 18:01 | 52.01286 | -3.19214 | 16334 ft | 251 kts | 14° |
| 2026-04-30 18:02 | 52.06519 | -3.18156 | 16871 ft | 255 kts | 6° |
| 2026-04-30 18:02 | 52.11877 | -3.17929 | 17422 ft | 257 kts | 6° |
| 2026-04-30 18:03 | 52.17275 | -3.17528 | 17904 ft | 260 kts | 7° |
| 2026-04-30 18:04 | 52.22710 | -3.17108 | 18378 ft | 262 kts | 7° |
| 2026-04-30 18:05 | 52.30017 | -3.16538 | 18964 ft | 263 kts | 7° |
| 2026-04-30 18:06 | 52.37360 | -3.15973 | 19482 ft | 266 kts | 7° |
| 2026-04-30 18:07 | 52.44789 | -3.15395 | 19948 ft | 268 kts | 7° |
| 2026-04-30 18:08 | 52.50404 | -3.14952 | 20245 ft | 270 kts | 6° |
| 2026-04-30 18:09 | 52.57940 | -3.14364 | 20622 ft | 272 kts | 7° |
| 2026-04-30 18:10 | 52.65524 | -3.13770 | 21105 ft | 274 kts | 7° |
| 2026-04-30 18:11 | 52.73154 | -3.13337 | 21531 ft | 278 kts | 357° |
| 2026-04-30 18:11 | 52.78912 | -3.14932 | 21840 ft | 279 kts | 352° |
| 2026-04-30 18:12 | 52.84723 | -3.16335 | 21990 ft | 286 kts | 354° |
| 2026-04-30 18:13 | 52.88714 | -3.17285 | 22005 ft | 293 kts | 354° |
| 2026-04-30 18:13 | 52.94122 | -3.17072 | 22012 ft | 294 kts | 9° |
| 2026-04-30 18:14 | 52.98936 | -3.16506 | 22010 ft | 299 kts | 7° |
| 2026-04-30 18:15 | 53.05221 | -3.16068 | 21993 ft | 303 kts | 6° |
| 2026-04-30 18:15 | 53.11517 | -3.15553 | 21998 ft | 304 kts | 6° |
| 2026-04-30 18:16 | 53.15781 | -3.15215 | 21998 ft | 305 kts | 6° |
| 2026-04-30 18:16 | 53.19999 | -3.14880 | 21998 ft | 306 kts | 6° |
| 2026-04-30 18:17 | 53.22122 | -3.14712 | 21996 ft | 306 kts | 6° |
| 2026-04-30 18:17 | 53.24254 | -3.14548 | 22000 ft | 306 kts | 6° |
| 2026-04-30 18:17 | 53.28510 | -3.14208 | 22002 ft | 306 kts | 6° |
| 2026-04-30 18:18 | 53.30637 | -3.14037 | 22001 ft | 306 kts | 6° |
| 2026-04-30 18:18 | 53.32773 | -3.13867 | 22023 ft | 307 kts | 6° |
| 2026-04-30 18:18 | 53.34907 | -3.13689 | 22025 ft | 307 kts | 6° |
| 2026-04-30 18:18 | 53.37040 | -3.13544 | 22020 ft | 307 kts | 1° |
| 2026-04-30 18:19 | 53.39105 | -3.14394 | 22026 ft | 307 kts | 333° |
| 2026-04-30 18:19 | 53.40906 | -3.16200 | 22022 ft | 305 kts | 319° |
| 2026-04-30 18:19 | 53.42448 | -3.18604 | 22023 ft | 301 kts | 308° |
| 2026-04-30 18:19 | 53.43853 | -3.21205 | 22017 ft | 301 kts | 307° |
| 2026-04-30 18:20 | 53.45252 | -3.23823 | 22017 ft | 301 kts | 307° |
| 2026-04-30 18:20 | 53.46692 | -3.26388 | 22016 ft | 303 kts | 309° |
| 2026-04-30 18:20 | 53.48175 | -3.28899 | 22017 ft | 303 kts | 310° |
| 2026-04-30 18:20 | 53.49661 | -3.31417 | 22007 ft | 304 kts | 310° |
| 2026-04-30 18:21 | 53.51141 | -3.33947 | 22012 ft | 304 kts | 310° |
| 2026-04-30 18:21 | 53.52620 | -3.36491 | 22012 ft | 304 kts | 310° |
| 2026-04-30 18:21 | 53.54093 | -3.39025 | 22011 ft | 304 kts | 310° |
| 2026-04-30 18:21 | 53.55577 | -3.41576 | 22011 ft | 304 kts | 310° |
| 2026-04-30 18:22 | 53.57049 | -3.44118 | 22011 ft | 304 kts | 309° |
| 2026-04-30 18:22 | 53.59725 | -3.49567 | 22011 ft | 299 kts | 298° |
| 2026-04-30 18:22 | 53.60880 | -3.52474 | 22011 ft | 299 kts | 297° |
| 2026-04-30 18:23 | 53.62036 | -3.55394 | 22006 ft | 299 kts | 298° |
| 2026-04-30 18:23 | 53.63218 | -3.58276 | 22006 ft | 300 kts | 299° |
| 2026-04-30 18:23 | 53.64419 | -3.61151 | 22006 ft | 300 kts | 299° |
| 2026-04-30 18:23 | 53.65625 | -3.64023 | 22032 ft | 300 kts | 300° |
| 2026-04-30 18:24 | 53.68049 | -3.69774 | 22012 ft | 301 kts | 299° |
| 2026-04-30 18:24 | 53.69249 | -3.72656 | 22007 ft | 300 kts | 299° |
| 2026-04-30 18:24 | 53.70438 | -3.75512 | 22002 ft | 300 kts | 299° |
| 2026-04-30 18:25 | 53.71651 | -3.78430 | 22000 ft | 300 kts | 299° |
| 2026-04-30 18:25 | 53.74029 | -3.84148 | 22000 ft | 299 kts | 299° |
| 2026-04-30 18:25 | 53.75225 | -3.87027 | 22000 ft | 299 kts | 299° |
| 2026-04-30 18:26 | 53.77613 | -3.92783 | 21999 ft | 299 kts | 298° |
| 2026-04-30 18:26 | 53.78800 | -3.95654 | 22005 ft | 298 kts | 298° |
| 2026-04-30 18:26 | 53.79991 | -3.98532 | 21997 ft | 298 kts | 298° |
| 2026-04-30 18:27 | 53.82367 | -4.04290 | 21998 ft | 298 kts | 298° |
| 2026-04-30 18:27 | 53.83554 | -4.07170 | 21998 ft | 298 kts | 298° |
| 2026-04-30 18:28 | 53.85926 | -4.12952 | 21999 ft | 298 kts | 298° |
| 2026-04-30 18:28 | 53.87157 | -4.15783 | 21995 ft | 300 kts | 309° |
| 2026-04-30 18:28 | 53.90789 | -4.19322 | 22001 ft | 308 kts | 339° |
| 2026-04-30 18:29 | 53.92822 | -4.20506 | 22007 ft | 310 kts | 341° |
| 2026-04-30 18:29 | 53.98896 | -4.24283 | 22006 ft | 310 kts | 337° |
| 2026-04-30 18:30 | 54.02235 | -4.26518 | 21997 ft | 310 kts | 337° |
| 2026-04-30 18:30 | 54.06937 | -4.29628 | 22000 ft | 310 kts | 337° |
| 2026-04-30 18:31 | 54.08946 | -4.30962 | 22000 ft | 310 kts | 337° |
| 2026-04-30 18:31 | 54.12287 | -4.33190 | 22005 ft | 310 kts | 337° |
| 2026-04-30 18:32 | 54.15959 | -4.36727 | 22008 ft | 300 kts | 311° |
| 2026-04-30 18:32 | 54.17337 | -4.39369 | 22000 ft | 296 kts | 301° |
| 2026-04-30 18:32 | 54.19597 | -4.45176 | 22005 ft | 294 kts | 296° |
| 2026-04-30 18:33 | 54.20721 | -4.48094 | 22006 ft | 295 kts | 297° |
| 2026-04-30 18:33 | 54.23081 | -4.53879 | 22009 ft | 297 kts | 298° |
| 2026-04-30 18:33 | 54.24266 | -4.56785 | 21999 ft | 297 kts | 298° |
| 2026-04-30 18:34 | 54.25459 | -4.59666 | 21995 ft | 297 kts | 299° |
| 2026-04-30 18:34 | 54.27803 | -4.65409 | 22008 ft | 296 kts | 298° |
| 2026-04-30 18:34 | 54.28980 | -4.68306 | 22005 ft | 296 kts | 298° |
| 2026-04-30 18:35 | 54.30154 | -4.71199 | 22001 ft | 296 kts | 298° |
| 2026-04-30 18:35 | 54.31329 | -4.74095 | 22003 ft | 296 kts | 298° |
| 2026-04-30 18:35 | 54.32506 | -4.76999 | 22001 ft | 296 kts | 298° |
| 2026-04-30 18:36 | 54.34857 | -4.82806 | 22009 ft | 297 kts | 298° |
| 2026-04-30 18:36 | 54.36034 | -4.85720 | 22004 ft | 297 kts | 298° |
| 2026-04-30 18:36 | 54.38381 | -4.91533 | 21996 ft | 296 kts | 298° |
| 2026-04-30 18:37 | 54.39553 | -4.94449 | 21867 ft | 301 kts | 298° |
| 2026-04-30 18:37 | 54.40765 | -4.97458 | 21523 ft | 311 kts | 298° |
| 2026-04-30 18:37 | 54.42010 | -5.00564 | 21163 ft | 320 kts | 298° |
| 2026-04-30 18:37 | 54.43270 | -5.03714 | 20820 ft | 327 kts | 298° |
| 2026-04-30 18:38 | 54.44575 | -5.06968 | 20464 ft | 333 kts | 300° |
| 2026-04-30 18:38 | 54.45925 | -5.10250 | 20099 ft | 339 kts | 300° |
| 2026-04-30 18:38 | 54.47285 | -5.13588 | 19737 ft | 343 kts | 300° |
| 2026-04-30 18:38 | 54.48649 | -5.16971 | 19368 ft | 346 kts | 299° |
| 2026-04-30 18:39 | 54.50028 | -5.20391 | 19001 ft | 348 kts | 299° |
| 2026-04-30 18:39 | 54.51600 | -5.23575 | 18631 ft | 355 kts | 315° |
| 2026-04-30 18:39 | 54.53569 | -5.26197 | 18250 ft | 361 kts | 321° |
| 2026-04-30 18:39 | 54.55626 | -5.28708 | 17831 ft | 362 kts | 322° |
| 2026-04-30 18:40 | 54.57645 | -5.31271 | 17484 ft | 353 kts | 320° |
| 2026-04-30 18:40 | 54.59526 | -5.33823 | 17087 ft | 334 kts | 317° |
| 2026-04-30 18:40 | 54.61287 | -5.36289 | 16715 ft | 319 kts | 317° |
| 2026-04-30 18:40 | 54.62998 | -5.38655 | 16361 ft | 314 kts | 317° |
| 2026-04-30 18:41 | 54.64690 | -5.41005 | 16039 ft | 310 kts | 317° |
| 2026-04-30 18:41 | 54.66347 | -5.43298 | 15704 ft | 308 kts | 318° |
| 2026-04-30 18:41 | 54.68028 | -5.45597 | 15382 ft | 306 kts | 318° |
| 2026-04-30 18:41 | 54.69694 | -5.47870 | 15046 ft | 304 kts | 318° |
| 2026-04-30 18:42 | 54.71351 | -5.50132 | 14717 ft | 303 kts | 318° |
| 2026-04-30 18:42 | 54.74636 | -5.54646 | 14087 ft | 300 kts | 318° |
| 2026-04-30 18:42 | 54.76265 | -5.56893 | 13755 ft | 299 kts | 317° |
| 2026-04-30 18:45 | 54.73872 | -5.69641 | 11348 ft | 223 kts | 161° |
| 2026-04-30 18:45 | 54.72401 | -5.68758 | 11158 ft | 224 kts | 161° |
| 2026-04-30 18:45 | 54.70935 | -5.67822 | 10976 ft | 223 kts | 156° |
| 2026-04-30 18:46 | 54.69809 | -5.65995 | 10812 ft | 231 kts | 121° |
| 2026-04-30 18:46 | 54.69567 | -5.63192 | 10631 ft | 247 kts | 87° |
| 2026-04-30 18:46 | 54.70025 | -5.60306 | 10446 ft | 251 kts | 78° |
| 2026-04-30 18:46 | 54.70571 | -5.57467 | 10269 ft | 251 kts | 75° |
| 2026-04-30 18:47 | 54.71647 | -5.55022 | 10112 ft | 267 kts | 41° |
| 2026-04-30 18:47 | 54.73392 | -5.53832 | 9934 ft | 277 kts | 9° |
| 2026-04-30 18:47 | 54.75304 | -5.54271 | 9738 ft | 281 kts | 337° |
| 2026-04-30 18:47 | 54.76907 | -5.56133 | 9545 ft | 276 kts | 316° |
| 2026-04-30 18:48 | 54.78281 | -5.58455 | 9340 ft | 276 kts | 310° |
| 2026-04-30 18:48 | 54.79423 | -5.61080 | 9147 ft | 270 kts | 291° |
| 2026-04-30 18:48 | 54.79894 | -5.64143 | 8987 ft | 260 kts | 274° |
| 2026-04-30 18:48 | 54.80080 | -5.67247 | 8820 ft | 258 kts | 267° |
| 2026-04-30 18:49 | 54.80030 | -5.70329 | 8659 ft | 253 kts | 255° |
| 2026-04-30 18:49 | 54.79311 | -5.72959 | 8529 ft | 237 kts | 221° |
| 2026-04-30 18:49 | 54.77943 | -5.74283 | 8323 ft | 229 kts | 188° |
| 2026-04-30 18:49 | 54.76405 | -5.73975 | 7822 ft | 222 kts | 156° |
| 2026-04-30 18:50 | 54.75073 | -5.72704 | 7313 ft | 217 kts | 149° |
| 2026-04-30 18:50 | 54.73803 | -5.71296 | 6837 ft | 216 kts | 147° |
| 2026-04-30 18:50 | 54.72565 | -5.69824 | 6309 ft | 217 kts | 146° |
| 2026-04-30 18:50 | 54.71380 | -5.68153 | 5574 ft | 220 kts | 140° |
| 2026-04-30 18:51 | 54.70032 | -5.67010 | 4845 ft | 222 kts | 173° |
| 2026-04-30 18:51 | 54.68496 | -5.67276 | 4109 ft | 223 kts | 193° |
| 2026-04-30 18:51 | 54.67112 | -5.68614 | 3210 ft | 237 kts | 219° |
| 2026-04-30 18:51 | 54.66336 | -5.71109 | 2170 ft | 245 kts | 256° |
| 2026-04-30 18:52 | 54.66363 | -5.73912 | 1662 ft | 221 kts | 270° |
| 2026-04-30 18:52 | 54.66521 | -5.76399 | 1454 ft | 197 kts | 273° |
| 2026-04-30 18:52 | 54.66696 | -5.78549 | 1521 ft | 162 kts | 272° |
| 2026-04-30 18:52 | 54.66745 | -5.80397 | 1346 ft | 150 kts | 257° |
| 2026-04-30 18:53 | 54.66448 | -5.82046 | 1170 ft | 128 kts | 232° |
| 2026-04-30 18:53 | 54.65875 | -5.82893 | 1067 ft | 103 kts | 199° |
| 2026-04-30 18:53 | 54.65201 | -5.83378 | 883 ft | 108 kts | 197° |
| 2026-04-30 18:53 | 54.64549 | -5.84001 | 673 ft | 105 kts | 206° |
| 2026-04-30 18:54 | 54.63938 | -5.84715 | 466 ft | 111 kts | 208° |
| 2026-04-30 18:54 | 54.63294 | -5.85463 | 322 ft | 115 kts | 210° |
| 2026-04-30 18:54 | 54.62663 | -5.86245 | 96 ft | 108 kts | 206° |
| 2026-04-30 18:54 | 54.62083 | -5.86908 | 13 ft | 88 kts | 211° |
| 2026-04-30 18:55 | 54.61740 | -5.87336 | 16 ft | 41 kts | 211° |
| 2026-04-30 18:55 | 54.61385 | -5.87745 | 10 ft | 23 kts | 214° |
| 2026-04-30 18:55 | 54.61304 | -5.87766 | 11 ft | 8 kts | 132° |
| 2026-04-30 18:56 | 54.61278 | -5.87575 | 14 ft | 13 kts | 48° |
| 2026-04-30 18:56 | 54.61378 | -5.87442 | 18 ft | 18 kts | 40° |
| 2026-04-30 18:56 | 54.61464 | -5.87302 | 19 ft | 16 kts | 35° |
| 2026-04-30 18:57 | 54.61650 | -5.87081 | 19 ft | 16 kts | 34° |
| 2026-04-30 18:57 | 54.61672 | -5.87008 | 18 ft | 4 kts | 128° |
| 2026-04-30 18:57 | 54.61656 | -5.86971 | 18 ft | 3 kts | 125° |
| 2026-04-30 18:58 | 54.61654 | -5.86965 | 18 ft | 0 kts | 126° |